Terminal Aerodrome Forecast
Issued by NWS

Home | Current Version | Previous Version | Text Only | Print | Product List | Glossary On
Versions: 1 2 3 4 5 6 7 8 9 10 11 12 13 14 15 16 17 18 19 20 21 22 23 24 25 26
000
FTUS42 KRAH 310525
TAFINT
TAF
KINT 310525Z 3106/0106 13004KT P6SM FEW070 BKN200
     FM311600 22005KT P6SM BKN045 OVC200 PROB30 3116/3120 5SM -SHRA
      BKN035
     FM010300 VRB03KT P6SM VCSH OVC060=

USA.gov is the U.S. government's official web portal to all federal, state and local government web resources and services.